Christmas, Michigan
Current Conditions -  °F | °C
As of 5:34 AM on Sunday 26 Oct 2014 (Local Time) from KISQ Reporting Station
Clear Clear  
Wind Chill: 38°   Ceiling: Unl
Heat Index: 42°   Visibility: 10mi
Dew Point: 34°   Wind: 7mph
Humidity: 72%   Direction: 310°NW
Pressure: 29.85"   Gusts: NA
Location:  46.4479°N, 86.4779°W
Report Text: KISQ 260934Z AUTO 31006KT 10SM CLR 06/01 A2985 RMK AO2 T00570010
Loading
Personal Weather Stations






























Interactive Weather Map
Tropical Storm Tracking
New forecast layout! Learn more

10-Day Weather Forecast

Advertisements
Track Severe Weather on mobile